Time;durP1;ratioP1;P1;durP2;ratioP2;P2;SDS_P1;SDS_P2;PMS_P1;PMS_P2;Temp;Humidity;BMP_temperature;BMP_pressure;BME280_temperature;BME280_humidity;BME280_pressure;Samples;Min_cycle;Max_cycle;Signal;HPM_P1;HPM_P2
2022/03/04 00:01:55;;;;;;;12.88;7.38;;;3.20;98.20;;;;;;5050244;28;20045;-64
2022/03/04 00:04:22;;;;;;;12.48;8.18;;;3.20;98.10;;;;;;5052388;28;20045;-65
2022/03/04 00:06:47;;;;;;;13.93;7.70;;;3.30;98.00;;;;;;5045265;28;20036;-65
2022/03/04 00:09:13;;;;;;;17.58;8.88;;;3.30;98.00;;;;;;5052651;28;20554;-64
2022/03/04 00:11:40;;;;;;;12.43;7.57;;;3.30;97.90;;;;;;5051227;28;20030;-65
2022/03/04 00:14:05;;;;;;;11.98;7.53;;;3.30;98.00;;;;;;5052807;28;20469;-64
2022/03/04 00:16:31;;;;;;;13.98;7.75;;;3.30;97.80;;;;;;5050152;28;20066;-64
2022/03/04 00:19:07;;;;;;;12.75;7.90;;;3.40;97.80;;;;;;5040754;28;20033;-65
2022/03/04 00:21:46;;;;;;;14.20;8.00;;;3.40;97.80;;;;;;5050852;28;21663;-64
2022/03/04 00:24:12;;;;;;;14.38;7.50;;;3.40;97.80;;;;;;5052981;28;20513;-63
2022/03/04 00:26:39;;;;;;;10.02;6.25;;;3.40;97.80;;;;;;5049342;28;20028;-64
2022/03/04 00:29:06;;;;;;;11.82;7.45;;;3.30;97.70;;;;;;5032026;28;20084;-64
2022/03/04 00:31:32;;;;;;;12.50;7.57;;;3.30;97.70;;;;;;5034279;28;20107;-64
2022/03/04 00:33:58;;;;;;;13.65;8.10;;;3.30;97.90;;;;;;5034363;28;20087;-64
2022/03/04 00:36:23;;;;;;;11.02;7.15;;;3.40;97.70;;;;;;5033140;28;20026;-65
2022/03/04 00:38:52;;;;;;;13.60;7.50;;;3.30;97.70;;;;;;5052160;28;20047;-65
2022/03/04 00:41:20;;;;;;;14.27;7.78;;;3.40;97.70;;;;;;5050854;28;20025;-64
2022/03/04 00:43:46;;;;;;;14.35;7.85;;;3.40;97.80;;;;;;5032306;28;20029;-64
2022/03/04 00:46:13;;;;;;;18.73;8.38;;;3.30;97.90;;;;;;5052344;28;20028;-65
2022/03/04 00:48:39;;;;;;;14.50;7.80;;;3.10;98.00;;;;;;5051386;28;20025;-65
2022/03/04 00:51:04;;;;;;;20.65;9.10;;;3.10;98.10;;;;;;5051675;28;20029;-65
2022/03/04 00:53:30;;;;;;;14.93;9.07;;;3.00;98.10;;;;;;5049843;28;20028;-65
2022/03/04 00:55:56;;;;;;;18.50;8.52;;;2.90;98.50;;;;;;5050356;28;20025;-65
2022/03/04 00:58:22;;;;;;;20.35;10.80;;;2.90;98.30;;;;;;5050430;28;20392;-65
2022/03/04 01:00:48;;;;;;;24.60;10.70;;;2.90;98.40;;;;;;5050492;28;20088;-65
2022/03/04 01:03:13;;;;;;;28.50;13.25;;;2.90;98.40;;;;;;5049218;28;20055;-64
2022/03/04 01:05:39;;;;;;;32.40;15.10;;;2.90;98.50;;;;;;5049219;28;20021;-64
2022/03/04 01:08:05;;;;;;;31.15;14.52;;;2.80;98.90;;;;;;5049342;28;20067;-64
2022/03/04 01:10:30;;;;;;;30.33;14.85;;;2.80;98.80;;;;;;5051795;28;20064;-65
2022/03/04 01:12:56;;;;;;;40.45;17.02;;;2.80;98.70;;;;;;5040166;28;20095;-64
2022/03/04 01:15:21;;;;;;;32.30;15.45;;;2.80;98.70;;;;;;5035310;28;20048;-65
2022/03/04 01:17:47;;;;;;;43.83;16.90;;;2.80;98.60;;;;;;5049445;28;20031;-64
2022/03/04 01:20:13;;;;;;;38.45;16.85;;;2.80;98.70;;;;;;5051837;28;20032;-65
2022/03/04 01:22:38;;;;;;;37.10;14.98;;;2.80;98.70;;;;;;5039199;28;20049;-64
2022/03/04 01:25:04;;;;;;;42.10;16.48;;;2.80;98.70;;;;;;5031544;28;20017;-65
2022/03/04 01:27:30;;;;;;;44.67;18.98;;;2.80;98.60;;;;;;5049296;28;20032;-65
2022/03/04 01:29:55;;;;;;;35.88;19.08;;;2.80;98.80;;;;;;5050047;28;20353;-65
2022/03/04 01:32:21;;;;;;;45.78;19.90;;;2.80;99.00;;;;;;5041354;28;20570;-65
2022/03/04 01:34:46;;;;;;;51.63;20.70;;;2.70;99.20;;;;;;5051299;28;20017;-64
2022/03/04 01:37:12;;;;;;;57.05;23.45;;;2.70;99.10;;;;;;5049773;28;20064;-65
2022/03/04 01:39:37;;;;;;;46.35;20.17;;;2.70;99.00;;;;;;5050815;28;20021;-64
2022/03/04 01:42:03;;;;;;;52.47;20.90;;;2.70;99.30;;;;;;5048308;28;20150;-64
2022/03/04 01:44:29;;;;;;;57.83;23.05;;;2.70;99.30;;;;;;5051298;28;20071;-65
2022/03/04 01:46:54;;;;;;;50.33;21.38;;;2.70;99.20;;;;;;5042455;28;20026;-64
2022/03/04 01:49:20;;;;;;;51.35;20.50;;;2.80;99.10;;;;;;5050636;28;20051;-65
2022/03/04 01:51:46;;;;;;;60.30;22.25;;;2.80;99.20;;;;;;5049392;28;20033;-64
2022/03/04 01:54:11;;;;;;;52.75;23.13;;;2.90;99.00;;;;;;5050730;28;20551;-64
2022/03/04 01:56:37;;;;;;;55.97;22.50;;;2.90;99.10;;;;;;5048316;28;20021;-64
2022/03/04 01:59:03;;;;;;;64.20;23.83;;;2.90;99.00;;;;;;5030789;28;20029;-64
2022/03/04 02:01:28;;;;;;;71.03;26.52;;;3.00;98.90;;;;;;5042490;28;20121;-65
2022/03/04 02:03:54;;;;;;;69.82;25.15;;;3.00;99.00;;;;;;5050775;28;20045;-65
2022/03/04 02:06:19;;;;;;;61.20;21.90;;;3.00;98.90;;;;;;5049634;28;20472;-65
2022/03/04 02:08:45;;;;;;;58.35;22.33;;;2.90;98.90;;;;;;5050251;28;20560;-65
2022/03/04 02:11:10;;;;;;;50.63;20.27;;;3.00;99.00;;;;;;5050372;28;20037;-64
2022/03/04 02:13:38;;;;;;;59.78;21.35;;;3.00;98.90;;;;;;5033917;28;20036;-64
2022/03/04 02:16:10;;;;;;;51.67;20.85;;;2.90;98.90;;;;;;5020912;28;20021;-64
2022/03/04 02:18:36;;;;;;;64.47;22.40;;;2.90;98.80;;;;;;5049298;28;20036;-64
2022/03/04 02:21:02;;;;;;;64.18;21.05;;;2.80;99.00;;;;;;5050911;28;20063;-64
2022/03/04 02:23:28;;;;;;;58.97;21.65;;;2.80;99.00;;;;;;5035851;28;20029;-64
2022/03/04 02:25:53;;;;;;;60.75;20.70;;;2.80;99.10;;;;;;5050053;28;20040;-64
2022/03/04 02:28:20;;;;;;;55.30;19.77;;;2.80;99.00;;;;;;5035798;28;20033;-63
2022/03/04 02:30:46;;;;;;;47.78;17.80;;;2.80;99.20;;;;;;5046573;28;20021;-64
2022/03/04 02:33:12;;;;;;;50.78;18.65;;;2.80;99.10;;;;;;5048830;28;20029;-64
2022/03/04 02:35:39;;;;;;;51.78;18.85;;;2.80;99.20;;;;;;5033053;28;20358;-64
2022/03/04 02:38:05;;;;;;;54.05;18.20;;;2.90;99.20;;;;;;5034947;28;20040;-65
2022/03/04 02:40:31;;;;;;;48.85;21.05;;;2.90;99.00;;;;;;5030594;28;20033;-63
2022/03/04 02:42:57;;;;;;;50.05;17.88;;;2.90;99.10;;;;;;5035939;28;20079;-63
2022/03/04 02:45:23;;;;;;;48.05;16.40;;;2.90;98.90;;;;;;5013236;28;20021;-64
2022/03/04 02:47:49;;;;;;;49.78;18.23;;;3.00;98.90;;;;;;5046922;28;20076;-64
2022/03/04 02:50:14;;;;;;;46.47;17.65;;;3.00;98.80;;;;;;5050336;28;20449;-64
2022/03/04 02:52:40;;;;;;;49.80;19.73;;;3.10;98.90;;;;;;5048705;28;20037;-64
2022/03/04 02:55:10;;;;;;;45.35;18.02;;;3.10;98.90;;;;;;5053320;28;20476;-65
2022/03/04 02:57:36;;;;;;;38.72;17.08;;;3.10;98.80;;;;;;5042629;28;20075;-64
2022/03/04 03:00:03;;;;;;;47.35;16.83;;;3.20;98.80;;;;;;5052769;28;20033;-64
2022/03/04 03:02:29;;;;;;;52.38;17.08;;;3.20;98.70;;;;;;5043096;28;20110;-64
2022/03/04 03:04:54;;;;;;;37.95;15.68;;;3.30;98.70;;;;;;5050232;28;20049;-63
2022/03/04 03:07:20;;;;;;;41.35;17.33;;;3.40;98.60;;;;;;5050215;28;20625;-64
2022/03/04 03:09:45;;;;;;;39.75;15.75;;;3.40;98.60;;;;;;5068822;28;20028;-64
2022/03/04 03:12:11;;;;;;;44.00;14.70;;;3.50;98.50;;;;;;5062542;28;20622;-65
2022/03/04 03:14:36;;;;;;;39.38;15.30;;;3.50;98.40;;;;;;5033996;28;20460;-64
2022/03/04 03:17:02;;;;;;;34.15;13.23;;;3.60;98.40;;;;;;5038287;28;20032;-64
2022/03/04 03:19:28;;;;;;;39.00;14.45;;;3.60;98.40;;;;;;5053720;28;20392;-65
2022/03/04 03:21:53;;;;;;;35.05;14.60;;;3.70;98.30;;;;;;5051359;28;20060;-64
2022/03/04 03:24:18;;;;;;;35.33;12.35;;;3.70;98.30;;;;;;5053332;28;20102;-64
2022/03/04 03:26:44;;;;;;;35.53;14.15;;;3.70;98.20;;;;;;5051614;28;20021;-64
2022/03/04 03:29:09;;;;;;;29.88;12.77;;;3.80;98.30;;;;;;5053553;28;20060;-64
2022/03/04 03:31:35;;;;;;;31.40;12.30;;;3.80;98.20;;;;;;5051243;28;20030;-64
2022/03/04 03:34:01;;;;;;;26.60;9.75;;;3.80;98.10;;;;;;5053694;28;20021;-64
2022/03/04 03:36:26;;;;;;;25.20;9.98;;;3.90;98.00;;;;;;5051745;28;20472;-64
2022/03/04 03:38:52;;;;;;;26.63;10.13;;;3.90;97.90;;;;;;5053199;28;20116;-64
2022/03/04 03:41:17;;;;;;;21.30;9.40;;;3.80;97.90;;;;;;5052317;28;20124;-64
2022/03/04 03:43:43;;;;;;;19.08;8.85;;;3.90;97.90;;;;;;5049528;28;20044;-64
2022/03/04 03:46:09;;;;;;;24.13;9.50;;;3.80;97.80;;;;;;5053222;28;20025;-64
2022/03/04 03:48:39;;;;;;;16.77;8.65;;;3.70;97.90;;;;;;5051169;28;20037;-64
2022/03/04 03:51:04;;;;;;;23.30;9.20;;;3.70;97.90;;;;;;5053327;28;20029;-64
2022/03/04 03:53:30;;;;;;;20.48;8.80;;;3.70;98.00;;;;;;5038790;28;20124;-64
2022/03/04 03:55:55;;;;;;;19.00;8.00;;;3.80;98.00;;;;;;5052101;28;20506;-64
2022/03/04 03:58:21;;;;;;;24.65;9.57;;;3.80;97.90;;;;;;5037680;28;20124;-64
2022/03/04 04:00:46;;;;;;;25.13;10.77;;;3.90;97.90;;;;;;5053082;28;20009;-64
2022/03/04 04:03:12;;;;;;;24.95;10.40;;;3.90;97.90;;;;;;5047474;28;20459;-64
2022/03/04 04:05:37;;;;;;;26.60;10.15;;;4.00;97.80;;;;;;5052591;28;20021;-64
2022/03/04 04:08:03;;;;;;;28.83;10.45;;;4.00;97.80;;;;;;5050627;28;20435;-65
2022/03/04 04:10:29;;;;;;;21.98;10.25;;;4.00;97.70;;;;;;5053045;28;20025;-64
2022/03/04 04:12:54;;;;;;;21.58;10.70;;;4.10;97.70;;;;;;5051300;28;20029;-63
2022/03/04 04:15:20;;;;;;;26.27;11.13;;;4.20;97.70;;;;;;5052952;28;20079;-64
2022/03/04 04:17:45;;;;;;;22.27;10.23;;;4.20;97.60;;;;;;5050927;28;20388;-64
2022/03/04 04:20:11;;;;;;;21.85;10.45;;;4.30;97.60;;;;;;5034775;28;20048;-64
2022/03/04 04:22:36;;;;;;;23.02;10.20;;;4.30;97.50;;;;;;5049946;28;20041;-63
2022/03/04 04:25:02;;;;;;;25.88;9.57;;;4.30;97.50;;;;;;5033705;28;20028;-63
2022/03/04 04:27:27;;;;;;;25.55;9.48;;;4.30;97.50;;;;;;5050763;28;20610;-64
2022/03/04 04:29:53;;;;;;;20.90;9.80;;;4.30;97.40;;;;;;5051658;28;20036;-63
2022/03/04 04:32:18;;;;;;;20.90;10.10;;;4.40;97.40;;;;;;5047060;28;20036;-64
2022/03/04 04:34:44;;;;;;;24.00;10.05;;;4.40;97.30;;;;;;5052199;28;20021;-64
2022/03/04 04:37:09;;;;;;;21.10;10.25;;;4.40;97.20;;;;;;5045179;28;20025;-64
2022/03/04 04:39:35;;;;;;;20.00;9.75;;;4.50;97.20;;;;;;5051803;28;20078;-64
2022/03/04 04:42:00;;;;;;;23.95;9.48;;;4.50;97.20;;;;;;5050517;28;20514;-64
2022/03/04 04:44:26;;;;;;;22.73;9.40;;;4.60;97.10;;;;;;5019007;28;20044;-64
2022/03/04 04:46:51;;;;;;;18.52;8.75;;;4.60;97.10;;;;;;5031739;28;20029;-64
2022/03/04 04:49:17;;;;;;;23.98;9.65;;;4.60;97.00;;;;;;5048163;28;20059;-64
2022/03/04 04:51:42;;;;;;;24.48;9.48;;;4.70;96.90;;;;;;5047981;28;20101;-64
2022/03/04 04:54:08;;;;;;;27.02;9.10;;;4.60;96.80;;;;;;5052143;28;20025;-64
2022/03/04 04:56:33;;;;;;;21.25;9.30;;;4.50;96.80;;;;;;5050342;28;20086;-64
2022/03/04 04:58:59;;;;;;;21.52;8.80;;;4.60;96.70;;;;;;5051955;28;20017;-63
2022/03/04 05:01:24;;;;;;;21.48;9.25;;;4.60;96.70;;;;;;5049328;28;20044;-63
2022/03/04 05:03:49;;;;;;;19.17;9.98;;;4.50;96.60;;;;;;5051504;28;20141;-64
2022/03/04 05:06:15;;;;;;;20.33;8.32;;;4.50;96.60;;;;;;5047720;28;20369;-65
2022/03/04 05:08:40;;;;;;;21.25;8.88;;;4.50;96.60;;;;;;5049896;28;20025;-64
2022/03/04 05:11:06;;;;;;;22.67;11.18;;;4.50;96.50;;;;;;5051755;28;20459;-64
2022/03/04 05:13:32;;;;;;;20.98;8.63;;;4.40;96.50;;;;;;5040256;28;20033;-64
2022/03/04 05:15:57;;;;;;;21.17;8.95;;;4.50;96.50;;;;;;5048088;28;20469;-63
2022/03/04 05:18:23;;;;;;;19.58;9.18;;;4.50;96.70;;;;;;5049180;28;20025;-64
2022/03/04 05:20:48;;;;;;;22.33;8.95;;;4.40;96.50;;;;;;5050750;28;20013;-64
2022/03/04 05:23:59;;;;;;;21.73;10.02;;;4.40;96.50;;;;;;5049606;28;20119;-64
2022/03/04 05:25:59;;;;;;;16.73;8.30;;;4.50;96.50;;;;;;5051073;28;20495;-64
2022/03/04 05:28:25;;;;;;;16.63;8.18;;;4.50;96.40;;;;;;5050136;28;20032;-64
2022/03/04 05:30:50;;;;;;;20.77;9.90;;;4.50;96.40;;;;;;5051278;28;20017;-64
2022/03/04 05:33:16;;;;;;;20.60;10.07;;;4.50;96.40;;;;;;5049733;28;20122;-64
2022/03/04 05:35:41;;;;;;;17.83;9.13;;;4.50;96.40;;;;;;5050962;28;20043;-64
2022/03/04 05:38:07;;;;;;;21.90;10.05;;;4.50;96.30;;;;;;5049156;28;20049;-64
2022/03/04 05:40:32;;;;;;;22.70;9.18;;;4.50;96.30;;;;;;5051072;28;20033;-63
2022/03/04 05:42:58;;;;;;;22.30;10.20;;;4.50;96.30;;;;;;5049180;28;20040;-64
2022/03/04 05:45:23;;;;;;;19.70;10.35;;;4.50;96.30;;;;;;5050826;28;20496;-64
2022/03/04 05:47:49;;;;;;;19.65;10.07;;;4.60;96.30;;;;;;5048904;28;20036;-64
2022/03/04 05:50:15;;;;;;;22.13;10.48;;;4.50;96.30;;;;;;5050719;28;20025;-63
2022/03/04 05:52:41;;;;;;;19.17;9.50;;;4.50;96.30;;;;;;5048850;28;20041;-64
2022/03/04 05:55:08;;;;;;;21.45;9.93;;;4.50;96.20;;;;;;5050760;28;20021;-64
2022/03/04 05:57:33;;;;;;;23.20;10.18;;;4.50;96.30;;;;;;5039388;28;20052;-64
2022/03/04 05:59:59;;;;;;;27.27;11.20;;;4.50;96.30;;;;;;5045013;28;20067;-64
2022/03/04 06:02:27;;;;;;;20.40;9.65;;;4.50;96.30;;;;;;5043147;28;20045;-65
2022/03/04 06:04:52;;;;;;;26.73;11.15;;;4.50;96.40;;;;;;5042698;28;20363;-64
2022/03/04 06:07:18;;;;;;;20.13;9.88;;;4.60;96.40;;;;;;5038343;28;20025;-63
2022/03/04 06:09:43;;;;;;;15.63;7.78;;;4.50;96.40;;;;;;5050825;28;20449;-65
2022/03/04 06:12:09;;;;;;;16.60;7.40;;;4.50;96.50;;;;;;5047724;28;20022;-64
2022/03/04 06:14:35;;;;;;;15.38;7.68;;;4.50;96.70;;;;;;5033867;28;20028;-64
2022/03/04 06:17:00;;;;;;;15.00;8.25;;;4.50;96.60;;;;;;5040547;28;20551;-64
2022/03/04 06:19:26;;;;;;;12.77;7.20;;;4.50;96.60;;;;;;5034848;28;20115;-64
2022/03/04 06:21:51;;;;;;;14.88;6.95;;;4.60;96.60;;;;;;5036083;28;20025;-64
2022/03/04 06:24:16;;;;;;;16.60;7.85;;;4.60;96.50;;;;;;5051201;28;20029;-64
2022/03/04 06:26:42;;;;;;;13.85;5.70;;;4.60;96.50;;;;;;5048656;28;20072;-64
2022/03/04 06:29:07;;;;;;;11.77;6.00;;;4.70;96.60;;;;;;5053724;28;20025;-64
2022/03/04 06:31:33;;;;;;;13.18;5.38;;;4.70;96.60;;;;;;5052779;28;20113;-64
2022/03/04 06:33:58;;;;;;;10.45;5.35;;;4.70;96.50;;;;;;5054543;28;20055;-64
2022/03/04 06:36:24;;;;;;;13.77;5.40;;;4.80;96.40;;;;;;5052500;28;20056;-64
2022/03/04 06:38:50;;;;;;;10.63;4.97;;;4.80;96.40;;;;;;5054626;28;20035;-64
2022/03/04 06:41:16;;;;;;;10.93;5.68;;;4.90;96.40;;;;;;5053449;28;20419;-64
2022/03/04 06:43:42;;;;;;;8.50;4.47;;;4.80;96.40;;;;;;5053659;28;20029;-64
2022/03/04 06:46:08;;;;;;;9.63;5.47;;;4.90;96.40;;;;;;5051698;28;20056;-64
2022/03/04 06:48:34;;;;;;;7.93;4.43;;;4.90;96.50;;;;;;5052670;28;20071;-64
2022/03/04 06:51:00;;;;;;;10.02;3.72;;;4.90;96.50;;;;;;5054432;28;20053;-65
2022/03/04 06:53:26;;;;;;;9.60;3.85;;;4.90;96.40;;;;;;5039996;28;20032;-64
2022/03/04 06:55:52;;;;;;;10.32;3.80;;;4.80;96.30;;;;;;5056958;28;20060;-64
2022/03/04 06:58:18;;;;;;;9.95;3.50;;;4.80;96.20;;;;;;5068970;28;20079;-64
2022/03/04 07:00:44;;;;;;;8.38;3.60;;;4.80;96.30;;;;;;5053885;28;20094;-64
2022/03/04 07:03:10;;;;;;;7.50;3.50;;;4.80;96.40;;;;;;5047867;28;20053;-64
2022/03/04 07:05:37;;;;;;;8.15;3.35;;;4.80;96.50;;;;;;5051905;28;20518;-64
2022/03/04 07:08:03;;;;;;;8.10;3.53;;;4.80;96.50;;;;;;5049094;28;20037;-64
2022/03/04 07:10:29;;;;;;;7.55;3.55;;;4.80;96.50;;;;;;5046478;28;20028;-64
2022/03/04 07:12:55;;;;;;;8.68;3.50;;;4.80;96.40;;;;;;5040555;28;20047;-64
2022/03/04 07:15:21;;;;;;;7.57;3.78;;;4.80;96.50;;;;;;5053921;28;20021;-64
2022/03/04 07:17:47;;;;;;;11.18;3.95;;;4.90;96.50;;;;;;5039817;28;20033;-64
2022/03/04 07:20:13;;;;;;;6.63;3.53;;;4.90;96.50;;;;;;5058549;28;20696;-65
2022/03/04 07:22:39;;;;;;;6.38;3.17;;;4.90;96.50;;;;;;5036969;28;20056;-65
2022/03/04 07:25:10;;;;;;;8.60;3.70;;;5.00;96.50;;;;;;5045848;28;20655;-65
2022/03/04 07:27:36;;;;;;;7.30;3.58;;;5.00;96.60;;;;;;5053150;28;20037;-63
2022/03/04 07:30:05;;;;;;;7.47;3.78;;;5.00;96.60;;;;;;5061647;28;20051;-64
2022/03/04 07:32:32;;;;;;;6.72;3.53;;;5.00;96.50;;;;;;5049841;28;20025;-65
2022/03/04 07:34:57;;;;;;;7.00;3.42;;;5.10;96.50;;;;;;5052026;28;20025;-64
2022/03/04 07:37:23;;;;;;;8.25;3.45;;;5.10;96.50;;;;;;5043823;28;20029;-65
2022/03/04 07:39:48;;;;;;;10.02;4.00;;;5.20;96.40;;;;;;5044564;28;20144;-64
2022/03/04 07:42:14;;;;;;;6.90;3.60;;;5.10;96.30;;;;;;5047953;28;20029;-65
2022/03/04 07:44:39;;;;;;;8.43;3.85;;;5.10;96.40;;;;;;5036661;28;20024;-65
2022/03/04 07:47:05;;;;;;;8.80;4.53;;;5.10;96.30;;;;;;5047832;28;20468;-65
2022/03/04 07:49:30;;;;;;;9.70;4.20;;;5.10;96.30;;;;;;5051866;28;20055;-65
2022/03/04 07:51:56;;;;;;;9.70;4.65;;;5.00;96.30;;;;;;5038043;28;20049;-65
2022/03/04 07:54:21;;;;;;;11.15;4.75;;;5.00;96.30;;;;;;5048536;28;20033;-65
2022/03/04 07:56:47;;;;;;;9.20;5.28;;;5.00;96.30;;;;;;5040023;28;20017;-64
2022/03/04 07:59:12;;;;;;;10.43;5.78;;;4.90;96.40;;;;;;5063045;28;20031;-64
2022/03/04 08:01:38;;;;;;;12.70;6.80;;;4.90;96.40;;;;;;5045772;28;20104;-63
2022/03/04 08:04:05;;;;;;;13.43;6.03;;;4.90;96.40;;;;;;5048235;28;20116;-63
2022/03/04 08:06:31;;;;;;;14.55;6.43;;;5.00;96.40;;;;;;5036650;28;20021;-64
2022/03/04 08:08:56;;;;;;;11.35;5.53;;;5.00;96.30;;;;;;5039395;28;20041;-64
2022/03/04 08:11:21;;;;;;;10.90;5.35;;;5.10;96.20;;;;;;5046310;28;20075;-64
2022/03/04 08:13:47;;;;;;;8.52;5.13;;;4.90;96.20;;;;;;5035326;28;20019;-64
2022/03/04 08:16:12;;;;;;;10.55;5.07;;;5.00;96.30;;;;;;5034209;28;20071;-64
2022/03/04 08:18:38;;;;;;;17.20;5.20;;;5.00;96.30;;;;;;5047213;28;20032;-64
2022/03/04 08:21:04;;;;;;;14.32;5.43;;;5.00;96.20;;;;;;5048263;28;20608;-64
2022/03/04 08:23:30;;;;;;;6.32;4.28;;;5.00;96.20;;;;;;5038204;28;20046;-64
2022/03/04 08:25:57;;;;;;;10.10;4.10;;;5.10;96.20;;;;;;5050782;28;20029;-64
2022/03/04 08:28:23;;;;;;;7.60;3.80;;;5.20;96.00;;;;;;5048600;28;20072;-64
2022/03/04 08:30:48;;;;;;;7.28;4.32;;;5.20;95.90;;;;;;5032616;28;20100;-64
2022/03/04 08:33:13;;;;;;;8.45;4.00;;;5.20;95.70;;;;;;5043537;28;20396;-64
2022/03/04 08:35:39;;;;;;;8.10;4.75;;;5.20;95.60;;;;;;5034664;28;20112;-65
2022/03/04 08:38:04;;;;;;;10.18;4.57;;;5.00;95.40;;;;;;5051282;28;20020;-64
2022/03/04 08:40:30;;;;;;;12.00;4.30;;;4.90;95.30;;;;;;5051509;28;20031;-64
2022/03/04 08:42:55;;;;;;;6.13;3.40;;;4.90;95.30;;;;;;5046868;28;20032;-65
2022/03/04 08:45:21;;;;;;;7.72;3.10;;;4.80;95.10;;;;;;5051163;28;20430;-64
2022/03/04 08:47:47;;;;;;;8.48;3.75;;;4.80;95.20;;;;;;5047118;28;20054;-63
2022/03/04 08:50:14;;;;;;;4.90;3.20;;;4.90;95.20;;;;;;5052255;28;20156;-64
2022/03/04 08:52:40;;;;;;;8.00;3.55;;;4.90;95.00;;;;;;5053296;28;20032;-64
2022/03/04 08:55:14;;;;;;;4.53;2.50;;;5.00;94.90;;;;;;5046944;28;20032;-64
2022/03/04 08:57:44;;;;;;;5.77;3.07;;;5.00;94.50;;;;;;5045655;28;20029;-64
2022/03/04 09:00:10;;;;;;;7.28;3.10;;;5.10;94.60;;;;;;5053712;28;20013;-64
2022/03/04 09:02:36;;;;;;;8.27;2.97;;;5.10;94.50;;;;;;5052126;28;20074;-64
2022/03/04 09:05:02;;;;;;;3.72;2.53;;;5.10;94.20;;;;;;5057245;28;20479;-64
2022/03/04 09:07:27;;;;;;;6.57;2.92;;;5.10;93.90;;;;;;5056566;28;20533;-64
2022/03/04 09:09:53;;;;;;;7.40;2.83;;;5.10;94.00;;;;;;5042769;28;20028;-64
2022/03/04 09:12:19;;;;;;;5.50;3.45;;;5.10;94.10;;;;;;5044687;28;20041;-64
2022/03/04 09:14:45;;;;;;;7.43;3.35;;;5.10;93.50;;;;;;5034218;28;20025;-64
2022/03/04 09:17:10;;;;;;;6.93;3.30;;;5.00;93.50;;;;;;5046144;28;20057;-64
2022/03/04 09:19:36;;;;;;;11.32;3.42;;;5.00;93.80;;;;;;5051124;28;20140;-64
2022/03/04 09:22:02;;;;;;;9.50;4.00;;;5.20;93.80;;;;;;5051105;28;20037;-65
2022/03/04 09:24:28;;;;;;;6.15;3.42;;;5.20;93.80;;;;;;5050787;28;20048;-63
2022/03/04 09:26:54;;;;;;;10.07;4.18;;;5.30;93.80;;;;;;5047069;28;20025;-64
2022/03/04 09:29:20;;;;;;;8.43;4.30;;;5.30;93.50;;;;;;5051661;28;20032;-65
2022/03/04 09:31:45;;;;;;;8.02;3.95;;;5.30;93.50;;;;;;5051380;28;20594;-64
2022/03/04 09:34:11;;;;;;;8.90;4.07;;;5.30;93.40;;;;;;5044074;28;20411;-64
2022/03/04 09:36:37;;;;;;;7.75;3.40;;;5.30;93.30;;;;;;5048155;28;20025;-64
2022/03/04 09:39:03;;;;;;;7.47;3.33;;;5.30;93.50;;;;;;5050237;28;20119;-65
2022/03/04 09:41:30;;;;;;;7.22;3.47;;;5.40;93.40;;;;;;5039887;28;20029;-64
2022/03/04 09:43:56;;;;;;;6.97;2.97;;;5.40;93.50;;;;;;5037928;28;20132;-64
2022/03/04 09:46:22;;;;;;;6.95;4.13;;;5.50;93.40;;;;;;5041869;28;20108;-65
2022/03/04 09:48:49;;;;;;;6.63;3.45;;;5.50;93.30;;;;;;5032134;28;20033;-65
2022/03/04 09:51:15;;;;;;;7.85;4.53;;;5.50;93.30;;;;;;5053034;28;20025;-65
2022/03/04 09:53:40;;;;;;;7.72;3.40;;;5.50;93.20;;;;;;5040371;28;20029;-65
2022/03/04 09:56:06;;;;;;;9.50;3.47;;;5.60;93.20;;;;;;5053089;28;20412;-65
2022/03/04 09:58:31;;;;;;;5.00;3.08;;;5.60;93.10;;;;;;5040347;28;20075;-64
2022/03/04 10:00:57;;;;;;;7.15;3.65;;;5.60;93.00;;;;;;5047034;28;20437;-65
2022/03/04 10:03:41;;;;;;;8.27;3.67;;;5.70;93.10;;;;;;5054538;28;20064;-65
2022/03/04 10:06:07;;;;;;;6.43;3.38;;;5.80;93.10;;;;;;5023184;28;20035;-64
2022/03/04 10:08:37;;;;;;;7.68;3.95;;;5.80;92.50;;;;;;5037903;28;20444;-65
2022/03/04 10:11:03;;;;;;;6.78;3.40;;;5.70;92.20;;;;;;5060377;28;20017;-65
2022/03/04 10:13:46;;;;;;;10.75;4.60;;;5.80;92.30;;;;;;5049518;28;20495;-65
2022/03/04 10:16:27;;;;;;;8.57;3.65;;;5.80;92.10;;;;;;5031478;28;20036;-65
2022/03/04 10:19:19;;;;;;;6.85;3.55;;;5.70;91.40;;;;;;5048578;28;20387;-65
2022/03/04 10:21:58;;;;;;;5.00;3.20;;;5.60;91.10;;;;;;5047848;28;20029;-65
2022/03/04 10:24:38;;;;;;;5.35;3.03;;;5.60;91.10;;;;;;5035688;28;20124;-66
2022/03/04 10:27:12;;;;;;;5.47;2.92;;;5.50;91.30;;;;;;5061524;28;20082;-66
2022/03/04 10:29:46;;;;;;;6.38;3.15;;;5.40;91.50;;;;;;5043846;28;20465;-65
2022/03/04 10:32:19;;;;;;;7.07;3.15;;;5.40;91.50;;;;;;5032022;28;20033;-65
2022/03/04 10:34:59;;;;;;;7.18;4.15;;;5.40;91.60;;;;;;5041405;28;20105;-65
2022/03/04 10:37:43;;;;;;;6.60;3.65;;;5.40;91.10;;;;;;5049462;28;20028;-65
2022/03/04 10:40:15;;;;;;;5.10;3.42;;;5.20;91.00;;;;;;5050908;28;20420;-65
2022/03/04 10:42:59;;;;;;;7.38;3.72;;;5.20;91.10;;;;;;5044251;28;20044;-65
2022/03/04 10:45:31;;;;;;;5.53;3.92;;;5.10;91.00;;;;;;5050619;28;20048;-66
2022/03/04 10:48:03;;;;;;;5.88;3.83;;;5.10;91.00;;;;;;5050051;28;20025;-65
2022/03/04 10:50:35;;;;;;;7.43;3.25;;;5.20;91.20;;;;;;5050524;28;20108;-65
2022/03/04 10:53:01;;;;;;;5.97;3.65;;;5.30;91.20;;;;;;5050037;28;20029;-65
2022/03/04 10:55:42;;;;;;;8.73;4.13;;;5.20;90.80;;;;;;5047797;28;20379;-65
2022/03/04 10:58:31;;;;;;;9.98;5.85;;;5.20;90.60;;;;;;5039161;28;20036;-65
2022/03/04 11:01:05;;;;;;;8.88;4.18;;;5.20;90.70;;;;;;5030506;28;20084;-65
2022/03/04 11:03:33;;;;;;;8.40;3.63;;;5.30;90.80;;;;;;5030244;28;20132;-65
2022/03/04 11:06:01;;;;;;;6.88;3.50;;;5.40;90.70;;;;;;5045638;28;20029;-65
2022/03/04 11:08:27;;;;;;;5.68;3.20;;;5.40;90.50;;;;;;5051482;28;20029;-65
2022/03/04 11:10:56;;;;;;;6.30;3.38;;;5.50;89.80;;;;;;5064432;28;20396;-65
2022/03/04 11:13:23;;;;;;;6.53;2.53;;;5.50;88.40;;;;;;5051496;28;20747;-65
2022/03/04 11:15:50;;;;;;;3.08;2.28;;;5.50;88.60;;;;;;5061452;28;20086;-65
2022/03/04 11:18:18;;;;;;;3.05;2.13;;;5.50;88.10;;;;;;5052797;28;20158;-65
2022/03/04 11:20:49;;;;;;;4.75;2.28;;;5.60;86.60;;;;;;5069205;28;20025;-65
2022/03/04 11:23:21;;;;;;;5.10;2.08;;;5.60;86.90;;;;;;5071229;28;20047;-65
2022/03/04 11:26:02;;;;;;;5.13;2.55;;;5.60;86.50;;;;;;5048235;28;20104;-65
2022/03/04 11:28:40;;;;;;;4.25;1.80;;;5.50;85.50;;;;;;5050055;28;20352;-65
2022/03/04 11:31:07;;;;;;;4.97;1.80;;;5.50;86.00;;;;;;5063846;28;20461;-65
2022/03/04 11:33:35;;;;;;;4.30;1.80;;;5.40;85.60;;;;;;5050396;28;20056;-65
2022/03/04 11:36:06;;;;;;;3.38;1.98;;;5.30;86.10;;;;;;5050871;28;20056;-65
2022/03/04 11:38:44;;;;;;;4.20;1.85;;;5.40;86.00;;;;;;5050061;28;20231;-65
2022/03/04 11:41:11;;;;;;;3.58;1.60;;;5.40;86.50;;;;;;5069489;28;20424;-66
2022/03/04 11:43:49;;;;;;;4.53;2.20;;;5.60;87.10;;;;;;5035588;28;20052;-65
2022/03/04 11:46:28;;;;;;;6.22;2.67;;;5.70;85.40;;;;;;5068152;28;20480;-65
2022/03/04 11:49:28;;;;;;;5.28;2.17;;;5.70;85.10;;;;;;5039100;28;20221;-64
2022/03/04 11:52:09;;;;;;;4.53;2.38;;;5.70;85.00;;;;;;5062062;28;20480;-65
2022/03/04 11:54:39;;;;;;;4.82;2.55;;;5.70;84.80;;;;;;5058438;28;20035;-65
2022/03/04 11:57:26;;;;;;;6.18;3.95;;;5.70;85.10;;;;;;5058899;28;20468;-64
2022/03/04 12:00:13;;;;;;;7.45;4.82;;;5.70;85.70;;;;;;5060684;28;20055;-65
2022/03/04 12:02:47;;;;;;;6.55;4.45;;;5.70;85.70;;;;;;5069610;28;20487;-64
2022/03/04 12:05:25;;;;;;;7.53;5.00;;;5.80;86.40;;;;;;5071276;28;20102;-64
2022/03/04 12:08:09;;;;;;;5.78;4.38;;;5.80;85.90;;;;;;5063928;28;20765;-64
2022/03/04 12:10:42;;;;;;;8.82;5.93;;;5.80;85.50;;;;;;5073182;28;20021;-64
2022/03/04 12:13:09;;;;;;;6.93;4.38;;;5.90;86.30;;;;;;5070703;28;20487;-65
2022/03/04 12:15:37;;;;;;;8.45;4.85;;;5.90;86.20;;;;;;5054677;28;20081;-64
2022/03/04 12:18:15;;;;;;;7.50;4.22;;;6.00;85.90;;;;;;5070127;28;20024;-65
2022/03/04 12:20:40;;;;;;;6.25;4.40;;;6.10;85.50;;;;;;5032931;28;20542;-66
2022/03/04 12:23:11;;;;;;;7.22;4.55;;;6.20;84.30;;;;;;5051327;28;20124;-64
2022/03/04 12:25:55;;;;;;;6.18;4.32;;;6.30;84.20;;;;;;5036526;28;20164;-65
2022/03/04 12:28:26;;;;;;;5.53;4.85;;;6.40;84.70;;;;;;5055429;28;20033;-65
2022/03/04 12:31:11;;;;;;;6.25;5.22;;;6.40;84.10;;;;;;5048164;28;20025;-64
2022/03/04 12:33:42;;;;;;;9.00;6.40;;;6.40;82.80;;;;;;5045770;28;20059;-66
2022/03/04 12:36:13;;;;;;;7.32;6.07;;;6.40;83.40;;;;;;5028853;28;20112;-65
2022/03/04 12:38:40;;;;;;;6.95;6.25;;;6.40;83.00;;;;;;5052796;28;20092;-64
2022/03/04 12:41:08;;;;;;;8.10;5.63;;;6.40;83.40;;;;;;5044478;28;20098;-64
2022/03/04 12:43:39;;;;;;;9.52;5.68;;;6.30;83.00;;;;;;5050903;28;20072;-64
2022/03/04 12:46:04;;;;;;;6.55;5.22;;;6.30;82.80;;;;;;5052279;28;20481;-65
2022/03/04 12:48:30;;;;;;;6.18;5.43;;;6.40;83.70;;;;;;5059693;28;20028;-65
2022/03/04 12:50:55;;;;;;;8.38;5.25;;;6.40;82.70;;;;;;5071607;28;20476;-64